Clima Ilopango International Airport
Despejado
Currently
Despejado
Mañana se prevé un día Más cálido que hoy.
Despejado
Sábado
11/17 0%
Despejado
Cielo mayormente despejado. Mínima de 18 C.
High 28° / Low 18°
Despejado
Mañana
11/18 20%
Despejado
Cielo mayormente despejado. Máxima de 32 C. Vientos del N de 10 a 15 km/h.
High 32° / Low 19°
METAR
MSSS 172350Z 35009KT CAVOK 25/17 Q1014 A2997 MSSS 172250Z 36007KT CAVOK 27/18 Q1014 A2994 MSSS 172150Z 35010KT CAVOK 28/18 Q1013 A2993 TAF MSSS 172125Z 1800/1824 35012KT CAVOK TX29/1819Z TN18/1812Z
TAF
MSSS 172125Z 1800/1824 35012KT CAVOK TX29/1819Z TN18/1812Z

Cámaras Aeroclub

Norte

Este

Sur

Oeste

AIS/AIP El Salvador

Autoridad de Aviación Civil (AAC) El Salvador

VER DOCUMENTO